Time;durP1;ratioP1;P1;durP2;ratioP2;P2;SDS_P1;SDS_P2;PMS_P1;PMS_P2;Temp;Humidity;BMP_temperature;BMP_pressure;BME280_temperature;BME280_humidity;BME280_pressure;Samples;Min_cycle;Max_cycle;Signal;HPM_P1;HPM_P2
2023/09/11 00:00:56;;;;;;;;;;;24.10;62.80;;;;;;1560004;74;758;-56
2023/09/11 00:02:58;;;;;;;;;;;24.10;62.70;;;;;;1562287;74;683;-56
2023/09/11 00:05:00;;;;;;;;;;;24.20;62.70;;;;;;1565337;74;790;-56
2023/09/11 00:07:02;;;;;;;;;;;24.10;62.70;;;;;;1566721;74;817;-58
2023/09/11 00:09:04;;;;;;;;;;;24.20;62.70;;;;;;1564253;74;718;-58
2023/09/11 00:11:06;;;;;;;;;;;24.10;62.70;;;;;;1560795;74;1027;-56
2023/09/11 00:13:08;;;;;;;;;;;24.10;62.70;;;;;;1558558;74;1567;-56
2023/09/11 00:15:10;;;;;;;;;;;24.20;62.70;;;;;;1570313;74;1193;-57
2023/09/11 00:17:12;;;;;;;;;;;24.20;62.70;;;;;;1558718;74;1956;-57
2023/09/11 00:19:14;;;;;;;;;;;24.10;62.60;;;;;;1558904;74;744;-57
2023/09/11 00:21:15;;;;;;;;;;;24.10;62.60;;;;;;1565418;74;745;-57
2023/09/11 00:23:17;;;;;;;;;;;24.00;62.50;;;;;;1555521;74;684;-56
2023/09/11 00:25:19;;;;;;;;;;;24.00;62.50;;;;;;1561096;74;1123;-55
2023/09/11 00:27:21;;;;;;;;;;;24.10;62.60;;;;;;1556604;74;1515;-58
2023/09/11 00:29:23;;;;;;;;;;;24.10;62.50;;;;;;1562195;74;743;-58
2023/09/11 00:31:25;;;;;;;;;;;24.10;62.50;;;;;;1551317;74;697;-56
2023/09/11 00:33:27;;;;;;;;;;;24.10;62.40;;;;;;1562213;74;764;-58
2023/09/11 00:35:29;;;;;;;;;;;24.10;62.50;;;;;;1556858;74;1150;-57
2023/09/11 00:37:30;;;;;;;;;;;24.10;62.50;;;;;;1554720;74;1926;-56
2023/09/11 00:39:32;;;;;;;;;;;24.10;62.50;;;;;;1564924;74;738;-57
2023/09/11 00:41:34;;;;;;;;;;;24.10;62.50;;;;;;1562266;74;1657;-58
2023/09/11 00:43:36;;;;;;;;;;;24.10;62.50;;;;;;1563056;74;713;-59
2023/09/11 00:45:38;;;;;;;;;;;24.10;62.50;;;;;;1559788;74;1152;-57
2023/09/11 00:47:40;;;;;;;;;;;24.10;62.50;;;;;;1564349;74;744;-58
2023/09/11 00:49:42;;;;;;;;;;;24.00;62.40;;;;;;1566367;74;719;-58
2023/09/11 00:51:44;;;;;;;;;;;24.00;62.30;;;;;;1553246;74;746;-57
2023/09/11 00:53:46;;;;;;;;;;;24.10;62.40;;;;;;1561434;74;682;-56
2023/09/11 00:55:48;;;;;;;;;;;24.10;62.40;;;;;;1563815;74;1585;-57
2023/09/11 00:57:50;;;;;;;;;;;24.10;62.40;;;;;;1557562;74;1944;-58
2023/09/11 00:59:52;;;;;;;;;;;24.00;62.30;;;;;;1562624;74;691;-56
2023/09/11 01:01:54;;;;;;;;;;;24.10;62.30;;;;;;1565927;74;730;-58
2023/09/11 01:03:56;;;;;;;;;;;24.10;62.30;;;;;;1558667;74;778;-58
2023/09/11 01:05:57;;;;;;;;;;;24.00;62.20;;;;;;1561082;74;1146;-58
2023/09/11 01:07:59;;;;;;;;;;;24.10;62.30;;;;;;1563387;74;737;-57
2023/09/11 01:10:05;;;;;;;;;;;24.00;62.10;;;;;;1573198;74;1693;-58
2023/09/11 01:12:05;;;;;;;;;;;24.00;62.10;;;;;;1565533;74;1731;-58
2023/09/11 01:14:07;;;;;;;;;;;24.00;62.10;;;;;;1563272;74;897;-57
2023/09/11 01:16:11;;;;;;;;;;;24.00;62.10;;;;;;1558409;74;1177;-57
2023/09/11 01:18:17;;;;;;;;;;;24.00;62.10;;;;;;1566493;74;1906;-56
2023/09/11 01:20:24;;;;;;;;;;;24.00;62.10;;;;;;1566990;74;726;-56
2023/09/11 01:22:27;;;;;;;;;;;24.10;62.20;;;;;;1557031;74;1548;-57
2023/09/11 01:24:47;;;;;;;;;;;24.10;62.20;;;;;;1566261;74;795;-57
2023/09/11 01:26:54;;;;;;;;;;;24.00;62.10;;;;;;1561496;74;1099;-58
2023/09/11 01:29:07;;;;;;;;;;;24.10;62.20;;;;;;1563286;74;714;-58
2023/09/11 01:31:09;;;;;;;;;;;24.00;62.10;;;;;;1569044;74;761;-59
2023/09/11 01:33:11;;;;;;;;;;;24.00;62.10;;;;;;1565388;74;814;-58
2023/09/11 01:35:13;;;;;;;;;;;24.00;62.10;;;;;;1566068;74;1160;-58
2023/09/11 01:37:15;;;;;;;;;;;24.00;62.10;;;;;;1567438;74;1920;-57
2023/09/11 01:39:17;;;;;;;;;;;24.00;62.10;;;;;;1566952;74;802;-56
2023/09/11 01:41:19;;;;;;;;;;;24.00;62.10;;;;;;1565777;74;699;-57
2023/09/11 01:43:21;;;;;;;;;;;24.00;62.10;;;;;;1565546;74;679;-59
2023/09/11 01:45:23;;;;;;;;;;;24.00;62.10;;;;;;1567237;74;1125;-56
2023/09/11 01:47:24;;;;;;;;;;;24.00;62.10;;;;;;1556186;74;907;-57
2023/09/11 01:49:26;;;;;;;;;;;24.00;62.00;;;;;;1561866;70;227737;-71
2023/09/11 01:51:29;;;;;;;;;;;24.00;62.00;;;;;;1546519;75;1340;-69
2023/09/11 01:53:31;;;;;;;;;;;24.00;62.00;;;;;;1552813;75;745;-70
2023/09/11 01:55:33;;;;;;;;;;;24.00;62.00;;;;;;1561984;74;805;-70
2023/09/11 01:57:35;;;;;;;;;;;24.00;62.00;;;;;;1562706;74;1947;-70
2023/09/11 01:59:36;;;;;;;;;;;24.00;62.00;;;;;;1562191;75;749;-70
2023/09/11 02:01:38;;;;;;;;;;;24.00;61.90;;;;;;1564956;74;773;-69
2023/09/11 02:03:40;;;;;;;;;;;24.00;61.90;;;;;;1563691;75;766;-70
2023/09/11 02:05:42;;;;;;;;;;;24.00;61.90;;;;;;1554894;75;1502;-70
2023/09/11 02:07:44;;;;;;;;;;;24.00;62.00;;;;;;1557510;74;1081;-70
2023/09/11 02:09:46;;;;;;;;;;;24.00;62.00;;;;;;1562867;74;786;-69
2023/09/11 02:11:48;;;;;;;;;;;24.00;62.00;;;;;;1559511;74;719;-72
2023/09/11 02:13:51;;;;;;;;;;;24.00;62.00;;;;;;1564228;74;739;-70
2023/09/11 02:15:53;;;;;;;;;;;24.00;61.90;;;;;;1564122;75;742;-70
2023/09/11 02:17:54;;;;;;;;;;;24.00;62.00;;;;;;1561809;74;1936;-70
2023/09/11 02:19:56;;;;;;;;;;;24.00;62.00;;;;;;1564341;74;1339;-70
2023/09/11 02:21:58;;;;;;;;;;;24.00;62.00;;;;;;1565513;75;733;-70
2023/09/11 02:24:00;;;;;;;;;;;24.00;62.00;;;;;;1557859;75;602;-70
2023/09/11 02:26:02;;;;;;;;;;;24.00;62.00;;;;;;1563665;74;755;-72
2023/09/11 02:28:04;;;;;;;;;;;24.00;62.00;;;;;;1561174;74;1148;-70
2023/09/11 02:30:06;;;;;;;;;;;24.00;62.00;;;;;;1563565;74;742;-69
2023/09/11 02:32:08;;;;;;;;;;;24.00;62.00;;;;;;1559348;75;705;-71
2023/09/11 02:34:10;;;;;;;;;;;24.00;62.10;;;;;;1568490;74;1511;-69
2023/09/11 02:36:12;;;;;;;;;;;24.00;62.10;;;;;;1567858;74;1146;-69
2023/09/11 02:38:14;;;;;;;;;;;24.00;62.00;;;;;;1561494;74;1930;-68
2023/09/11 02:40:16;;;;;;;;;;;24.00;62.10;;;;;;1558550;75;900;-70
2023/09/11 02:42:18;;;;;;;;;;;24.00;62.10;;;;;;1562700;75;715;-71
2023/09/11 02:44:19;;;;;;;;;;;24.00;62.20;;;;;;1552527;75;753;-69
2023/09/11 02:46:21;;;;;;;;;;;24.00;62.20;;;;;;1558752;74;1133;-70
2023/09/11 02:48:23;;;;;;;;;;;24.00;62.20;;;;;;1566510;75;1571;-68
2023/09/11 02:50:25;;;;;;;;;;;24.00;62.20;;;;;;1559582;75;808;-68
2023/09/11 02:52:27;;;;;;;;;;;24.00;62.30;;;;;;1556566;74;802;-70
2023/09/11 02:54:29;;;;;;;;;;;23.90;62.30;;;;;;1565857;75;798;-70
2023/09/11 02:56:31;;;;;;;;;;;23.90;62.30;;;;;;1565972;75;1118;-70
2023/09/11 02:58:33;;;;;;;;;;;24.00;62.40;;;;;;1564590;75;1932;-70
2023/09/11 03:00:35;;;;;;;;;;;24.00;62.40;;;;;;1558889;75;733;-71
2023/09/11 03:02:37;;;;;;;;;;;24.00;62.40;;;;;;1567828;74;1792;-70
2023/09/11 03:04:39;;;;;;;;;;;24.00;62.40;;;;;;1566053;74;723;-72
2023/09/11 03:06:40;;;;;;;;;;;23.90;62.50;;;;;;1565068;75;1141;-70
2023/09/11 03:08:42;;;;;;;;;;;23.90;62.50;;;;;;1562805;75;762;-70
2023/09/11 03:10:45;;;;;;;;;;;24.00;62.50;;;;;;1564658;75;742;-70
2023/09/11 03:12:47;;;;;;;;;;;23.90;62.50;;;;;;1564367;75;721;-69
2023/09/11 03:14:52;;;;;;;;;;;24.00;62.60;;;;;;1560885;74;1545;-70
2023/09/11 03:16:53;;;;;;;;;;;24.00;62.50;;;;;;1567534;74;1156;-70
2023/09/11 03:18:55;;;;;;;;;;;24.00;62.50;;;;;;1563779;75;1947;-70
2023/09/11 03:20:57;;;;;;;;;;;24.00;62.60;;;;;;1563532;75;727;-69
2023/09/11 03:22:59;;;;;;;;;;;24.00;62.50;;;;;;1565298;74;736;-70
2023/09/11 03:25:01;;;;;;;;;;;24.00;62.60;;;;;;1566378;75;710;-70
2023/09/11 03:27:03;;;;;;;;;;;24.00;62.60;;;;;;1559460;75;1173;-70
2023/09/11 03:29:05;;;;;;;;;;;24.00;62.60;;;;;;1560476;75;1536;-70
2023/09/11 03:31:07;;;;;;;;;;;24.00;62.60;;;;;;1563494;74;846;-70
2023/09/11 03:33:09;;;;;;;;;;;24.00;62.60;;;;;;1562829;74;703;-70
2023/09/11 03:35:11;;;;;;;;;;;24.00;62.60;;;;;;1564695;74;750;-69
2023/09/11 03:37:13;;;;;;;;;;;24.00;62.60;;;;;;1564169;75;1140;-69
2023/09/11 03:39:14;;;;;;;;;;;24.00;62.60;;;;;;1563983;75;1942;-69
2023/09/11 03:41:16;;;;;;;;;;;24.00;62.60;;;;;;1564894;75;853;-69
2023/09/11 03:43:18;;;;;;;;;;;24.00;62.60;;;;;;1559629;74;1364;-70
2023/09/11 03:45:20;;;;;;;;;;;24.00;62.60;;;;;;1559641;74;607;-70
2023/09/11 03:47:22;;;;;;;;;;;24.00;62.60;;;;;;1561086;74;1140;-70
2023/09/11 03:49:24;;;;;;;;;;;24.00;62.60;;;;;;1561263;74;765;-71
2023/09/11 03:51:26;;;;;;;;;;;24.00;62.60;;;;;;1568799;74;780;-70
2023/09/11 03:53:28;;;;;;;;;;;24.00;62.60;;;;;;1569645;74;789;-70
2023/09/11 03:55:29;;;;;;;;;;;24.00;62.60;;;;;;1569836;74;723;-70
2023/09/11 03:57:31;;;;;;;;;;;24.00;62.60;;;;;;1568178;74;1578;-69
2023/09/11 03:59:33;;;;;;;;;;;24.00;62.60;;;;;;1568808;74;795;-70
2023/09/11 04:01:35;;;;;;;;;;;24.00;62.60;;;;;;1570711;74;759;-70
2023/09/11 04:03:37;;;;;;;;;;;23.90;62.60;;;;;;1570558;74;784;-71
2023/09/11 04:05:39;;;;;;;;;;;24.00;62.60;;;;;;1570064;74;738;-70
2023/09/11 04:07:41;;;;;;;;;;;23.90;62.60;;;;;;1568691;74;1151;-69
2023/09/11 04:09:43;;;;;;;;;;;23.90;62.60;;;;;;1563901;74;603;-69
2023/09/11 04:11:45;;;;;;;;;;;24.00;62.60;;;;;;1566243;74;1556;-69
2023/09/11 04:13:47;;;;;;;;;;;23.90;62.60;;;;;;1568612;74;750;-69
2023/09/11 04:15:48;;;;;;;;;;;24.00;62.60;;;;;;1569641;74;830;-70
2023/09/11 04:17:54;;;;;;;;;;;23.90;62.60;;;;;;1539898;76;1936;-70
2023/09/11 04:19:54;;;;;;;;;;;23.90;62.60;;;;;;1568138;74;1669;-70
2023/09/11 04:21:56;;;;;;;;;;;23.90;62.60;;;;;;1567520;74;730;-69
2023/09/11 04:23:58;;;;;;;;;;;23.90;62.60;;;;;;1570193;74;737;-70
2023/09/11 04:26:00;;;;;;;;;;;24.00;62.50;;;;;;1573715;74;1561;-70
2023/09/11 04:28:02;;;;;;;;;;;23.90;62.50;;;;;;1569096;74;1157;-69
2023/09/11 04:30:04;;;;;;;;;;;23.90;62.50;;;;;;1554963;74;826;-67
2023/09/11 04:32:06;;;;;;;;;;;23.90;62.50;;;;;;1541010;76;688;-70
2023/09/11 04:34:08;;;;;;;;;;;23.90;62.50;;;;;;1541706;76;872;-71
2023/09/11 04:36:11;;;;;;;;;;;23.90;62.50;;;;;;1518732;77;730;-70
2023/09/11 04:38:13;;;;;;;;;;;23.90;62.50;;;;;;1538378;76;1910;-69
2023/09/11 04:40:15;;;;;;;;;;;23.90;62.50;;;;;;1540472;76;1611;-70
2023/09/11 04:42:17;;;;;;;;;;;23.90;62.40;;;;;;1533343;76;899;-70
2023/09/11 04:44:19;;;;;;;;;;;24.00;62.50;;;;;;1540364;76;722;-70
2023/09/11 04:46:21;;;;;;;;;;;24.00;62.40;;;;;;1507130;77;1106;-69
2023/09/11 04:48:23;;;;;;;;;;;23.90;62.40;;;;;;1537216;76;726;-68
2023/09/11 04:50:25;;;;;;;;;;;23.90;62.40;;;;;;1512817;77;740;-68
2023/09/11 04:52:27;;;;;;;;;;;23.90;62.30;;;;;;1511123;77;792;-71
2023/09/11 04:54:28;;;;;;;;;;;23.90;62.30;;;;;;1536335;76;1395;-70
2023/09/11 04:56:30;;;;;;;;;;;23.90;62.30;;;;;;1540726;76;1241;-69
2023/09/11 04:58:32;;;;;;;;;;;23.90;62.30;;;;;;1539644;76;1940;-70
2023/09/11 05:00:34;;;;;;;;;;;24.00;62.30;;;;;;1514321;77;746;-70
2023/09/11 05:02:36;;;;;;;;;;;24.00;62.20;;;;;;1505470;77;688;-69
2023/09/11 05:04:39;;;;;;;;;;;23.90;62.20;;;;;;1500466;77;603;-70
2023/09/11 05:06:41;;;;;;;;;;;23.90;62.20;;;;;;1529772;76;1146;-70
2023/09/11 05:08:42;;;;;;;;;;;23.90;62.10;;;;;;1510759;77;1544;-69
2023/09/11 05:10:44;;;;;;;;;;;23.90;62.10;;;;;;1507121;77;776;-70
2023/09/11 05:12:47;;;;;;;;;;;23.90;62.10;;;;;;1532844;76;821;-69
2023/09/11 05:14:48;;;;;;;;;;;23.90;62.00;;;;;;1511538;77;810;-69
2023/09/11 05:16:50;;;;;;;;;;;23.90;62.10;;;;;;1509099;77;1085;-70
2023/09/11 05:18:52;;;;;;;;;;;23.80;62.00;;;;;;1516650;76;1938;-70
2023/09/11 05:20:54;;;;;;;;;;;23.90;62.00;;;;;;1529134;76;751;-70
2023/09/11 05:22:56;;;;;;;;;;;23.90;62.00;;;;;;1521468;77;1322;-71
2023/09/11 05:24:59;;;;;;;;;;;23.80;61.90;;;;;;1502073;77;598;-70
2023/09/11 05:27:01;;;;;;;;;;;23.90;61.90;;;;;;1509190;77;1141;-69
2023/09/11 05:29:03;;;;;;;;;;;23.90;61.90;;;;;;1512738;77;797;-69
2023/09/11 05:31:07;;;;;;;;;;;23.90;61.90;;;;;;1532122;76;779;-69
2023/09/11 05:33:09;;;;;;;;;;;23.90;61.90;;;;;;1518141;77;741;-70
2023/09/11 05:35:11;;;;;;;;;;;23.90;61.90;;;;;;1539686;76;715;-69
2023/09/11 05:37:12;;;;;;;;;;;23.90;61.80;;;;;;1542362;76;1567;-68
2023/09/11 05:39:14;;;;;;;;;;;23.90;61.80;;;;;;1531497;76;1953;-68
2023/09/11 05:41:20;;;;;;;;;;;23.90;61.80;;;;;;1511447;77;742;-70
2023/09/11 05:43:20;;;;;;;;;;;23.90;61.80;;;;;;1537619;76;1688;-70
2023/09/11 05:45:22;;;;;;;;;;;23.90;61.80;;;;;;1508620;77;824;-69
2023/09/11 05:47:23;;;;;;;;;;;23.90;61.80;;;;;;1516482;77;1128;-68
2023/09/11 05:49:25;;;;;;;;;;;23.90;61.80;;;;;;1566503;74;1537;-70
2023/09/11 05:51:27;;;;;;;;;;;23.90;61.80;;;;;;1566426;74;788;-69
2023/09/11 05:53:29;;;;;;;;;;;23.90;61.80;;;;;;1566624;74;709;-70
2023/09/11 05:55:32;;;;;;;;;;;23.90;61.70;;;;;;1570606;74;804;-71
2023/09/11 05:57:34;;;;;;;;;;;23.90;61.70;;;;;;1568304;74;1161;-70
2023/09/11 05:59:37;;;;;;;;;;;23.90;61.70;;;;;;1567609;74;1934;-70
2023/09/11 06:01:39;;;;;;;;;;;23.90;61.70;;;;;;1567381;74;747;-69
2023/09/11 06:03:41;;;;;;;;;;;23.90;61.70;;;;;;1571186;74;1587;-69
2023/09/11 06:05:43;;;;;;;;;;;23.90;61.80;;;;;;1574247;74;800;-70
2023/09/11 06:07:44;;;;;;;;;;;23.90;61.80;;;;;;1572296;74;1143;-70
2023/09/11 06:09:46;;;;;;;;;;;23.90;61.80;;;;;;1569646;74;700;-70
2023/09/11 06:11:48;;;;;;;;;;;23.90;61.80;;;;;;1568366;74;786;-72
2023/09/11 06:13:50;;;;;;;;;;;23.90;61.80;;;;;;1567181;74;774;-70
2023/09/11 06:15:52;;;;;;;;;;;23.90;61.80;;;;;;1569516;74;740;-70
2023/09/11 06:17:54;;;;;;;;;;;23.90;61.80;;;;;;1565957;74;1578;-70
2023/09/11 06:19:56;;;;;;;;;;;23.90;61.80;;;;;;1570876;74;1910;-71
2023/09/11 06:21:58;;;;;;;;;;;23.90;61.80;;;;;;1565841;74;801;-70
2023/09/11 06:24:00;;;;;;;;;;;23.90;61.80;;;;;;1570197;74;738;-70
2023/09/11 06:26:02;;;;;;;;;;;23.90;61.90;;;;;;1562268;74;868;-69
2023/09/11 06:28:04;;;;;;;;;;;23.90;61.90;;;;;;1568594;74;1124;-70
2023/09/11 06:30:06;;;;;;;;;;;23.90;61.90;;;;;;1564429;74;745;-70
2023/09/11 06:32:08;;;;;;;;;;;23.90;62.00;;;;;;1563036;74;1563;-70
2023/09/11 06:34:10;;;;;;;;;;;23.90;62.00;;;;;;1565509;74;839;-71
2023/09/11 06:36:13;;;;;;;;;;;23.90;62.10;;;;;;1569023;74;772;-68
2023/09/11 06:38:15;;;;;;;;;;;23.90;62.10;;;;;;1571721;74;777;-70
2023/09/11 06:40:16;;;;;;;;;;;23.90;62.10;;;;;;1580183;74;1934;-69
2023/09/11 06:42:22;;;;;;;;;;;23.90;62.20;;;;;;1564436;74;825;-70
2023/09/11 06:44:23;;;;;;;;;;;24.00;62.30;;;;;;1562033;74;779;-68
2023/09/11 06:46:25;;;;;;;;;;;23.90;62.40;;;;;;1559259;74;1541;-70
2023/09/11 06:48:27;;;;;;;;;;;23.90;62.50;;;;;;1570392;74;787;-70
2023/09/11 06:50:29;;;;;;;;;;;23.90;62.50;;;;;;1558935;74;799;-70
2023/09/11 06:52:38;;;;;;;;;;;23.90;62.50;;;;;;1564575;74;794;-69
2023/09/11 06:54:35;;;;;;;;;;;23.90;62.40;;;;;;1568217;74;1443;-69
2023/09/11 06:56:37;;;;;;;;;;;23.90;62.40;;;;;;1568728;74;1152;-70
2023/09/11 06:58:39;;;;;;;;;;;23.90;62.40;;;;;;1575075;74;1926;-70
2023/09/11 07:00:41;;;;;;;;;;;24.00;62.40;;;;;;1564625;74;1541;-70
2023/09/11 07:02:44;;;;;;;;;;;23.90;62.30;;;;;;1570834;74;782;-70
2023/09/11 07:04:46;;;;;;;;;;;23.90;62.30;;;;;;1570338;74;2084;-69
2023/09/11 07:06:48;;;;;;;;;;;24.00;62.40;;;;;;1568259;74;1155;-70
2023/09/11 07:08:50;;;;;;;;;;;24.00;62.50;;;;;;1570219;74;793;-70
2023/09/11 07:10:52;;;;;;;;;;;23.90;62.40;;;;;;1561701;74;703;-70
2023/09/11 07:12:54;;;;;;;;;;;23.90;62.50;;;;;;1566749;74;732;-70
2023/09/11 07:14:56;;;;;;;;;;;23.90;62.50;;;;;;1570311;74;1530;-69
2023/09/11 07:17:00;;;;;;;;;;;24.00;62.60;;;;;;1559301;74;1155;-70
2023/09/11 07:19:01;;;;;;;;;;;24.00;62.60;;;;;;1567697;74;1930;-69
2023/09/11 07:21:03;;;;;;;;;;;24.00;62.60;;;;;;1532429;77;788;-69
2023/09/11 07:23:05;;;;;;;;;;;24.00;62.60;;;;;;1524979;76;771;-70
2023/09/11 07:25:14;;;;;;;;;;;24.00;62.60;;;;;;1537473;76;751;-69
2023/09/11 07:27:11;;;;;;;;;;;24.00;62.70;;;;;;1510510;78;1558;-69
2023/09/11 07:29:12;;;;;;;;;;;24.00;62.80;;;;;;1508689;77;1446;-70
2023/09/11 07:31:14;;;;;;;;;;;24.00;62.80;;;;;;1523691;76;646;-70
2023/09/11 07:33:19;;;;;;;;;;;24.00;62.80;;;;;;1527167;77;676;-70
2023/09/11 07:35:20;;;;;;;;;;;24.00;62.80;;;;;;1521008;76;1506;-70
2023/09/11 07:37:22;;;;;;;;;;;24.00;62.90;;;;;;1530759;76;1174;-70
2023/09/11 07:39:24;;;;;;;;;;;24.00;62.90;;;;;;1523617;77;1910;-69
2023/09/11 07:41:26;;;;;;;;;;;24.00;63.00;;;;;;1522147;77;677;-70
2023/09/11 07:43:28;;;;;;;;;;;24.10;63.10;;;;;;1524749;77;1517;-69
2023/09/11 07:45:29;;;;;;;;;;;24.10;63.20;;;;;;1529174;77;682;-70
2023/09/11 07:47:31;;;;;;;;;;;24.10;63.40;;;;;;1520281;77;1139;-69
2023/09/11 07:49:33;;;;;;;;;;;24.10;63.40;;;;;;1525527;77;660;-71
2023/09/11 07:51:35;;;;;;;;;;;24.10;63.60;;;;;;1528336;77;737;-69
2023/09/11 07:53:37;;;;;;;;;;;24.10;63.60;;;;;;1529171;77;810;-70
2023/09/11 07:55:39;;;;;;;;;;;24.20;63.60;;;;;;1523328;77;797;-70
2023/09/11 07:57:41;;;;;;;;;;;24.10;63.60;;;;;;1531605;77;1659;-70
2023/09/11 07:59:43;;;;;;;;;;;24.10;63.70;;;;;;1525858;77;1936;-70
2023/09/11 08:01:44;;;;;;;;;;;24.20;63.70;;;;;;1532286;77;576;-69
2023/09/11 08:03:47;;;;;;;;;;;24.10;63.80;;;;;;1529408;77;796;-71
2023/09/11 08:05:49;;;;;;;;;;;24.10;63.90;;;;;;1530909;77;764;-69
2023/09/11 08:07:51;;;;;;;;;;;24.10;64.00;;;;;;1530152;76;1127;-70
2023/09/11 08:09:53;;;;;;;;;;;24.20;64.00;;;;;;1531257;77;712;-70
2023/09/11 08:11:55;;;;;;;;;;;24.20;64.00;;;;;;1529320;77;1513;-69
2023/09/11 08:13:57;;;;;;;;;;;24.10;64.00;;;;;;1528871;77;652;-69
2023/09/11 08:15:59;;;;;;;;;;;24.10;64.10;;;;;;1532183;77;805;-71
2023/09/11 08:18:01;;;;;;;;;;;24.10;64.20;;;;;;1529943;77;1118;-70
2023/09/11 08:20:03;;;;;;;;;;;24.20;64.20;;;;;;1525617;77;1951;-70
2023/09/11 08:22:05;;;;;;;;;;;24.20;64.30;;;;;;1532037;77;733;-70
2023/09/11 08:24:07;;;;;;;;;;;24.20;64.30;;;;;;1528445;77;1597;-70
2023/09/11 08:26:09;;;;;;;;;;;24.20;64.30;;;;;;1527434;77;683;-69
2023/09/11 08:28:10;;;;;;;;;;;24.20;64.40;;;;;;1527165;77;1158;-70
2023/09/11 08:30:13;;;;;;;;;;;24.20;64.40;;;;;;1521223;77;754;-71
2023/09/11 08:32:15;;;;;;;;;;;24.20;64.50;;;;;;1522865;77;801;-69
2023/09/11 08:34:17;;;;;;;;;;;24.20;64.50;;;;;;1526998;77;862;-69
2023/09/11 08:36:19;;;;;;;;;;;24.20;64.60;;;;;;1528943;76;1174;-72
2023/09/11 08:38:21;;;;;;;;;;;24.20;64.60;;;;;;1533005;77;1548;-69
2023/09/11 08:40:24;;;;;;;;;;;24.20;64.70;;;;;;1530845;76;1936;-69
2023/09/11 08:42:26;;;;;;;;;;;24.20;64.70;;;;;;1522206;76;710;-70
2023/09/11 08:44:28;;;;;;;;;;;24.20;64.90;;;;;;1526145;77;780;-69
2023/09/11 08:46:32;;;;;;;;;;;24.20;64.90;;;;;;1529819;77;1126;-70
2023/09/11 08:48:34;;;;;;;;;;;24.20;64.90;;;;;;1518239;77;682;-70
2023/09/11 08:50:36;;;;;;;;;;;24.30;65.00;;;;;;1528668;77;820;-71
2023/09/11 08:52:38;;;;;;;;;;;24.20;64.90;;;;;;1527759;76;1569;-71
2023/09/11 08:54:42;;;;;;;;;;;24.20;65.00;;;;;;1517518;78;796;-72
2023/09/11 08:56:43;;;;;;;;;;;24.20;64.90;;;;;;1523681;78;1880;-70
2023/09/11 08:58:45;;;;;;;;;;;24.30;65.00;;;;;;1519511;77;786;-69
2023/09/11 09:00:47;;;;;;;;;;;24.30;65.00;;;;;;1517363;77;1949;-70
2023/09/11 09:02:49;;;;;;;;;;;24.30;65.00;;;;;;1520898;77;684;-69
2023/09/11 09:04:51;;;;;;;;;;;24.30;65.00;;;;;;1503857;76;709;-71
2023/09/11 09:06:53;;;;;;;;;;;24.20;64.90;;;;;;1517752;77;1581;-70
2023/09/11 09:08:55;;;;;;;;;;;24.30;65.00;;;;;;1516593;77;806;-69
2023/09/11 09:10:57;;;;;;;;;;;24.30;65.00;;;;;;1523656;77;751;-70
2023/09/11 09:12:59;;;;;;;;;;;24.30;65.00;;;;;;1517951;76;767;-70
2023/09/11 09:15:00;;;;;;;;;;;24.30;65.00;;;;;;1523328;78;815;-70
2023/09/11 09:17:03;;;;;;;;;;;24.20;65.00;;;;;;1522260;78;1088;-70
2023/09/11 09:19:04;;;;;;;;;;;24.30;65.10;;;;;;1520943;78;749;-70
2023/09/11 09:21:07;;;;;;;;;;;24.30;65.20;;;;;;1515200;77;1929;-70
2023/09/11 09:23:08;;;;;;;;;;;24.30;65.30;;;;;;1520762;76;638;-70
2023/09/11 09:25:10;;;;;;;;;;;24.20;65.30;;;;;;1517074;78;756;-71
2023/09/11 09:27:12;;;;;;;;;;;24.30;65.40;;;;;;1524082;76;1143;-71
2023/09/11 09:29:16;;;;;;;;;;;24.30;65.50;;;;;;1519154;77;755;-68
2023/09/11 09:31:25;;;;;;;;;;;24.30;65.60;;;;;;1499990;77;1038;-69
2023/09/11 09:33:27;;;;;;;;;;;24.30;65.70;;;;;;1499600;77;761;-70
2023/09/11 09:35:30;;;;;;;;;;;24.30;65.70;;;;;;1500883;77;1568;-70
2023/09/11 09:37:32;;;;;;;;;;;24.30;65.80;;;;;;1531890;76;1186;-69
2023/09/11 09:39:38;;;;;;;;;;;24.40;65.80;;;;;;1500719;77;792;-70
2023/09/11 09:41:38;;;;;;;;;;;24.30;65.80;;;;;;1471633;79;2162;-71
2023/09/11 09:43:39;;;;;;;;;;;24.40;65.90;;;;;;1522523;76;722;-70
2023/09/11 09:45:44;;;;;;;;;;;24.30;66.00;;;;;;1532988;76;719;-70
2023/09/11 09:47:46;;;;;;;;;;;24.40;66.00;;;;;;1520462;76;1060;-71
2023/09/11 09:49:52;;;;;;;;;;;24.30;66.10;;;;;;1499834;77;1345;-70
2023/09/11 09:51:54;;;;;;;;;;;24.40;66.10;;;;;;1518278;77;975;-70
2023/09/11 09:53:57;;;;;;;;;;;24.30;66.20;;;;;;1514561;77;795;-71
2023/09/11 09:56:07;;;;;;;;;;;24.40;66.10;;;;;;1527102;76;712;-70
2023/09/11 09:58:09;;;;;;;;;;;24.40;66.20;;;;;;1514514;77;1149;-70
2023/09/11 10:00:11;;;;;;;;;;;24.40;66.20;;;;;;1529769;76;1944;-72
2023/09/11 10:02:13;;;;;;;;;;;24.40;66.20;;;;;;1477317;79;968;-70
2023/09/11 10:04:20;;;;;;;;;;;24.30;66.20;;;;;;1512953;77;1605;-71
2023/09/11 10:06:26;;;;;;;;;;;24.40;66.20;;;;;;1511124;77;1690;-70
2023/09/11 10:08:27;;;;;;;;;;;24.40;66.20;;;;;;1503280;77;1723;-70
2023/09/11 10:10:29;;;;;;;;;;;24.30;66.10;;;;;;1523596;77;930;-70
2023/09/11 10:12:31;;;;;;;;;;;24.40;66.10;;;;;;1525806;77;660;-70
2023/09/11 10:14:33;;;;;;;;;;;24.40;66.10;;;;;;1528672;77;732;-70
2023/09/11 10:16:35;;;;;;;;;;;24.40;66.20;;;;;;1526113;77;1068;-70
2023/09/11 10:18:37;;;;;;;;;;;24.40;66.20;;;;;;1529984;76;680;-70
2023/09/11 10:20:39;;;;;;;;;;;24.40;66.10;;;;;;1518703;77;1928;-70
2023/09/11 10:22:40;;;;;;;;;;;24.40;66.10;;;;;;1524964;78;741;-71
2023/09/11 10:24:42;;;;;;;;;;;24.30;66.10;;;;;;1527243;77;728;-70
2023/09/11 10:26:45;;;;;;;;;;;24.40;66.10;;;;;;1522662;77;1139;-70
2023/09/11 10:28:49;;;;;;;;;;;24.40;66.10;;;;;;1519920;77;715;-72
2023/09/11 10:30:55;;;;;;;;;;;24.40;66.10;;;;;;1521515;77;1538;-69
2023/09/11 10:33:00;;;;;;;;;;;24.40;66.10;;;;;;1524910;77;1897;-70
2023/09/11 10:35:02;;;;;;;;;;;24.40;66.10;;;;;;1527250;77;1158;-68
2023/09/11 10:37:05;;;;;;;;;;;24.40;66.20;;;;;;1525604;77;1198;-70
2023/09/11 10:39:07;;;;;;;;;;;24.40;66.10;;;;;;1524763;76;839;-70
2023/09/11 10:41:09;;;;;;;;;;;24.40;66.00;;;;;;1523951;77;1929;-70
2023/09/11 10:43:11;;;;;;;;;;;24.40;65.90;;;;;;1514645;76;808;-70
2023/09/11 10:45:27;;;;;;;;;;;24.30;65.90;;;;;;1528554;77;1543;-70
2023/09/11 10:47:28;;;;;;;;;;;24.30;65.70;;;;;;1524382;76;1093;-70
2023/09/11 10:49:32;;;;;;;;;;;24.30;65.60;;;;;;1522750;77;750;-70
2023/09/11 10:51:34;;;;;;;;;;;24.40;64.90;;;;;;1520753;77;1946;-71
2023/09/11 10:53:36;;;;;;;;;;;24.40;64.20;;;;;;1521447;76;688;-70
2023/09/11 10:55:38;;;;;;;;;;;24.40;64.20;;;;;;1521004;78;794;-70
2023/09/11 10:57:39;;;;;;;;;;;24.30;63.50;;;;;;1495657;78;1149;-70
2023/09/11 10:59:41;;;;;;;;;;;24.30;63.30;;;;;;1526650;77;1604;-70
2023/09/11 11:01:47;;;;;;;;;;;24.40;63.00;;;;;;1527665;76;1936;-69
2023/09/11 11:03:49;;;;;;;;;;;24.30;62.80;;;;;;1525480;77;688;-70
2023/09/11 11:05:52;;;;;;;;;;;24.30;62.70;;;;;;1523641;76;864;-69
2023/09/11 11:07:54;;;;;;;;;;;24.30;62.70;;;;;;1533128;76;1139;-69
2023/09/11 11:09:55;;;;;;;;;;;24.30;62.60;;;;;;1530919;76;748;-68
2023/09/11 11:11:58;;;;;;;;;;;24.30;62.50;;;;;;1509102;77;793;-70
2023/09/11 11:14:13;;;;;;;;;;;24.30;62.40;;;;;;1517239;77;1517;-70
2023/09/11 11:16:19;;;;;;;;;;;24.40;62.30;;;;;;1572611;74;1089;-67
2023/09/11 11:18:26;;;;;;;;;;;24.30;62.00;;;;;;1562094;74;730;-70
2023/09/11 11:20:28;;;;;;;;;;;24.30;61.90;;;;;;1570246;74;1922;-69
2023/09/11 11:22:31;;;;;;;;;;;24.30;61.80;;;;;;1572708;74;603;-68
2023/09/11 11:24:38;;;;;;;;;;;24.40;61.70;;;;;;1573465;74;780;-68
2023/09/11 11:26:37;;;;;;;;;;;24.30;61.50;;;;;;1566193;74;1128;-68
2023/09/11 11:28:45;;;;;;;;;;;24.30;61.50;;;;;;1571745;74;1599;-68
2023/09/11 11:30:47;;;;;;;;;;;24.30;61.40;;;;;;1561815;74;734;-67
2023/09/11 11:32:49;;;;;;;;;;;24.40;61.40;;;;;;1571208;74;677;-67
2023/09/11 11:34:51;;;;;;;;;;;24.30;61.10;;;;;;1569673;74;748;-67
2023/09/11 11:36:55;;;;;;;;;;;24.30;61.00;;;;;;1573064;74;1171;-68
2023/09/11 11:38:56;;;;;;;;;;;24.30;60.90;;;;;;1568663;74;742;-67
2023/09/11 11:40:58;;;;;;;;;;;24.30;60.80;;;;;;1562045;74;1931;-69
2023/09/11 11:43:00;;;;;;;;;;;24.30;60.60;;;;;;1575798;74;713;-67
2023/09/11 11:45:02;;;;;;;;;;;24.20;60.40;;;;;;1569786;74;748;-67
2023/09/11 11:47:04;;;;;;;;;;;24.30;60.50;;;;;;1565206;74;1186;-68
2023/09/11 11:49:06;;;;;;;;;;;24.30;60.30;;;;;;1572088;74;746;-67
2023/09/11 11:51:08;;;;;;;;;;;24.30;60.30;;;;;;1567249;74;882;-67
2023/09/11 11:53:16;;;;;;;;;;;24.30;60.10;;;;;;1568215;74;801;-68
2023/09/11 11:55:21;;;;;;;;;;;24.30;60.10;;;;;;1571655;74;1490;-66
2023/09/11 11:57:23;;;;;;;;;;;24.30;60.00;;;;;;1561938;74;1124;-66
2023/09/11 11:59:31;;;;;;;;;;;24.30;59.80;;;;;;1538926;76;722;-67
2023/09/11 12:01:35;;;;;;;;;;;24.30;59.60;;;;;;1570618;74;1924;-67
2023/09/11 12:03:46;;;;;;;;;;;24.30;59.00;;;;;;1564695;74;748;-68
2023/09/11 12:05:48;;;;;;;;;;;24.20;59.00;;;;;;1569221;74;750;-67
2023/09/11 12:07:50;;;;;;;;;;;24.30;58.80;;;;;;1570587;74;1125;-67
2023/09/11 12:09:52;;;;;;;;;;;24.30;58.70;;;;;;1565636;74;1538;-67